Pagina principale
METAR-TAF:

METAR-TAF

Aeroporti :

Aeroporto di Genova-Sestri

Genova, Italia

latitudine: 44-25N, longitudine: 008-51E, altezza: 2 m

Osservazione

Il bollettino è stato emesso 36 minuti fa, alle 02:50 UTC
Vento 18 kt da nord/nord-est
Temperature 6°C
Umidità 75%
Pressione 1023 hPa
Visibilità: 7000 m
Nuvoloso ad un'altezza di 4500 ft
pioggia debole

METAR: LIMJ 250250Z 02018KT 7000 -RA BKN045 06/02 Q1023

Ora: 04:26 (03:26 UTC)

Previsione

Il bollettino è stato emesso 4 ore e 26 minuti fa, alle 23:00 UTC
Previsione valida dal 25 alle 00 UTC al 25 alle 24 UTC
Vento 12 kt da nord/nord-est
Visibilità: 8000 m
Nuvoloso ad un'altezza di 3000 ft
Temporaneamente
dal 25 alle 00 UTC al 25 alle 11 UTC
pioggia

TAF: LIMJ 242300Z 2500/2524 03012KT 8000 BKN030 TEMPO 2500/2511 RA

Osservazioni e previsioni meteorologiche di più di 4000 aeroporti (messaggi METAR e TAF).

Le stazioni disponibili sono rappresentate dai dischi gialli e rossi sulla carta.

Puntare il mouse per vedere il nome della stazione.

Clicca sopra per visualizzare le osservazioni e previsioni meteorologiche.

Per cambiare la mappa : fare clic sui pulsanti verdi con una croce nera per ingrandire, il pulsante verde con un trattino per diminuire, o sulla freccia verde per le mappe adiacenti.


METAR-TAF: